Puyallup, Pierce County-Thun Field (KPLU)

NamePierce County-Thun Field
CityPuyallup
CountryUnited States
ICAOKPLU
IATA
Altitude164 m
CoordinatesGoogle Map
Live Air TrafficLiveATC.net
METARKPLU 121255Z AUTO VRB06KT 10SM FEW022 05/04 A3012 RMK AO2
2018-12-12 12:55:00 Wind: North (0°) 3.09 m/s - Visibility: 16093.4 m - Temperature: 5 °C - Dew point: 4 °C - Humidity: 93.3% - Pressure: 1019.98 hPa
Statistics

The table below shows the detailed information of all flights to/from Puyallup, Pierce County-Thun Field (KPLU).